메인 페이지
METAR-TAF:

METAR-TAF

공항 :

라바트, 모로코

위도: 34-03N, 경도: 006-46W, 고도: 84m

현재 날씨관측

예보는 32분 전, 17:00시(UTC)에 발표되었습니다.
북북서7kt
온도 21°C
습도 69%
기압 1015 hPa
시정 10km 이상
고도 1300ft 상공 구름 조금

METAR: GMME 171700Z 33007KT 9999 FEW013 21/15 Q1015 NOSIG

시각: 18:32 (17:32 UTC)

예보

예보는 6 시간 32분 전, 11:00시(UTC)에 발표되었습니다.
예보 대상 시간: 17일 12시부터 18일 18시까지 (UTC)
서북서13kt
시정: 8000m
고도 1600ft 상공 구름 보통
고도 2000ft 상공 구름 보통
고도 8000ft 상공 구름 많음
전환 중
17일 23시부터 18일 02시까지 (UTC)
서남서13kt
시정: 5000m
고도 1000ft 상공 구름 많음
고도 1300ft 상공 구름 많음
고도 2000ft 상공 구름 보통, 적란운.
소나기
확률 40% :
일시적
18일 00시부터 18일 06시까지 (UTC)
남서15kt, 순간 최대 풍속 25kt
뇌우, 비

TAF: GMME 171100Z 1712/1818 30013KT 8000 SCT016 SCT020 BKN080 BECMG 1723/1802 24013KT 5000 SHRA BKN010 BKN013 SCT020CB PROB40 TEMPO 1800/1806 22015G25KT TSRA

4,000개 이상의 공항 관측 자료 및 예보 (METAR 및 TAF 보고).

지도상에서 검색 가능한 기상관측소가 노란 점과 빨간 점으로 표시되어 있습니다.

기상관측소 명을 보려면 표시 위로 마우스를 이동하세요.

날씨 관측과 예보를 보려면 클릭하세요.

지도 변경 : 확대하려면 엑스 표시가 있는 녹색 버튼, 축소하려면 빼기 표시가 있는 녹색 버튼, 다음 페이지의 지도를 보려면 녹색 화살표를 클릭하세요.


METAR-TAF: